createdAt,value
2023-01-17T00:00:15.027Z,96987.28
2023-01-17T00:03:17.224Z,96977.28
2023-01-17T00:06:38.001Z,96975.31
2023-01-17T00:09:56.965Z,96971.12
2023-01-17T00:13:02.329Z,96977.28
2023-01-17T00:16:04.765Z,96978.44
2023-01-17T00:19:25.574Z,96973.63
2023-01-17T00:22:48.532Z,96971.00
2023-01-17T00:26:06.007Z,96976.75
2023-01-17T00:29:08.146Z,96965.22
2023-01-17T00:32:10.265Z,96974.81
2023-01-17T00:35:12.425Z,96977.38
2023-01-17T00:38:17.147Z,96972.56
2023-01-17T00:41:19.328Z,96972.50
2023-01-17T00:44:39.930Z,96969.22
2023-01-17T00:48:03.699Z,96968.94
2023-01-17T00:51:24.648Z,96958.91
2023-01-17T00:54:45.518Z,96960.31
2023-01-17T00:58:06.311Z,96960.87
2023-01-17T01:01:27.256Z,96952.84
2023-01-17T01:04:48.024Z,96963.47
2023-01-17T01:08:09.291Z,96965.88
2023-01-17T01:11:33.586Z,96963.38
2023-01-17T01:14:54.419Z,96954.25
2023-01-17T01:18:15.239Z,96949.25
2023-01-17T01:21:35.877Z,96947.69
2023-01-17T01:24:56.957Z,96957.63
2023-01-17T01:28:31.947Z,96958.44
2023-01-17T01:31:52.661Z,96957.31
2023-01-17T01:34:54.953Z,96964.19
2023-01-17T01:37:57.297Z,96982.66
2023-01-17T01:40:59.496Z,96970.59
2023-01-17T01:44:01.638Z,96961.53
2023-01-17T01:47:03.838Z,96962.03
2023-01-17T01:50:08.496Z,96969.66
2023-01-17T01:53:10.800Z,96957.53
2023-01-17T01:56:13.915Z,96959.94
2023-01-17T01:59:20.015Z,96955.84
2023-01-17T02:02:22.193Z,96965.50
2023-01-17T02:05:25.716Z,96962.53
2023-01-17T02:08:28.250Z,96965.44
2023-01-17T02:11:31.436Z,96965.44
2023-01-17T02:14:33.607Z,96953.84
2023-01-17T02:17:35.740Z,96946.00
2023-01-17T02:21:10.458Z,96947.25
2023-01-17T02:24:44.865Z,96939.38
2023-01-17T02:28:11.704Z,96930.19
2023-01-17T02:31:33.977Z,96927.81
2023-01-17T02:34:56.366Z,96923.94
2023-01-17T02:38:15.641Z,96913.87
2023-01-17T02:41:44.940Z,96914.69
2023-01-17T02:44:47.168Z,96925.72
2023-01-17T02:47:49.335Z,96927.41
2023-01-17T02:51:11.035Z,96930.44
2023-01-17T02:54:36.458Z,96923.00
2023-01-17T02:57:57.382Z,96929.03
2023-01-17T03:01:05.588Z,96913.09
2023-01-17T03:04:39.214Z,96907.34
2023-01-17T03:07:44.330Z,96904.19
2023-01-17T03:10:46.728Z,96892.75
2023-01-17T03:13:49.191Z,96883.47
2023-01-17T03:16:51.577Z,96864.19
2023-01-17T03:19:53.777Z,96853.66
2023-01-17T03:22:56.279Z,96840.63
2023-01-17T03:25:58.465Z,96844.53
2023-01-17T03:29:00.655Z,96838.91
2023-01-17T03:32:02.977Z,96831.13
2023-01-17T03:35:05.694Z,96824.03
2023-01-17T03:38:07.912Z,96827.94
2023-01-17T03:41:10.175Z,96823.47
2023-01-17T03:44:12.313Z,96809.75
2023-01-17T03:47:14.569Z,96802.31
2023-01-17T03:50:16.855Z,96797.41
2023-01-17T03:53:19.088Z,96796.84
2023-01-17T03:56:21.736Z,96795.59
2023-01-17T03:59:23.902Z,96797.63
2023-01-17T04:02:26.108Z,96800.97
2023-01-17T04:05:28.296Z,96795.38
2023-01-17T04:08:30.579Z,96794.34
2023-01-17T04:11:32.725Z,96798.00
2023-01-17T04:14:35.204Z,96785.66
2023-01-17T04:17:37.540Z,96779.25
2023-01-17T04:20:40.320Z,96787.25
2023-01-17T04:23:42.518Z,96791.28
2023-01-17T04:26:44.910Z,96797.22
2023-01-17T04:29:47.125Z,96796.31
2023-01-17T04:32:49.350Z,96793.44
2023-01-17T04:35:53.308Z,96786.94
2023-01-17T04:38:55.479Z,96793.91
2023-01-17T04:41:57.696Z,96793.22
2023-01-17T04:44:59.852Z,96784.75
2023-01-17T04:48:06.333Z,96787.75
2023-01-17T04:51:08.533Z,96791.84
2023-01-17T04:54:10.749Z,96799.97
2023-01-17T04:57:12.946Z,96791.84
2023-01-17T05:00:15.756Z,96795.62
2023-01-17T05:03:22.845Z,96791.84
2023-01-17T05:06:25.036Z,96800.44
2023-01-17T05:09:27.181Z,96801.34
2023-01-17T05:12:29.385Z,96802.22
2023-01-17T05:15:31.670Z,96805.06
2023-01-17T05:18:33.937Z,96805.75
2023-01-17T05:21:36.099Z,96810.50
2023-01-17T05:24:38.294Z,96812.97
2023-01-17T05:27:40.493Z,96803.12
2023-01-17T05:30:42.766Z,96805.53
2023-01-17T05:33:44.992Z,96797.88
2023-01-17T05:36:47.159Z,96792.16
2023-01-17T05:39:49.313Z,96795.34
2023-01-17T05:42:53.637Z,96791.94
2023-01-17T05:45:55.852Z,96802.69
2023-01-17T05:48:58.014Z,96800.87
2023-01-17T05:52:00.178Z,96805.81
2023-01-17T05:55:02.400Z,96811.81
2023-01-17T05:58:05.858Z,96815.03
2023-01-17T06:01:08.105Z,96811.12
2023-01-17T06:04:10.297Z,96817.19
2023-01-17T06:07:12.471Z,96821.06
2023-01-17T06:10:15.997Z,96826.91
2023-01-17T06:13:21.911Z,96833.50
2023-01-17T06:16:24.159Z,96837.87
2023-01-17T06:19:26.390Z,96843.03
2023-01-17T06:22:28.539Z,96853.59
2023-01-17T06:25:36.794Z,96857.97
2023-01-17T06:28:39.159Z,96857.22
2023-01-17T06:31:41.368Z,96859.88
2023-01-17T06:34:43.609Z,96858.47
2023-01-17T06:37:45.763Z,96863.75
2023-01-17T06:40:48.175Z,96862.00
2023-01-17T06:43:50.322Z,96867.97
2023-01-17T06:46:53.429Z,96868.53
2023-01-17T06:49:55.681Z,96879.88
2023-01-17T06:52:59.779Z,96889.50
2023-01-17T06:56:02.265Z,96896.88
2023-01-17T06:59:04.772Z,96897.78
2023-01-17T07:02:10.090Z,96910.09
2023-01-17T07:05:12.266Z,96909.41
2023-01-17T07:08:16.479Z,96912.97
2023-01-17T07:11:18.742Z,96913.78
2023-01-17T07:14:20.937Z,96924.84
2023-01-17T07:17:23.245Z,96926.91
2023-01-17T07:20:25.437Z,96933.62
2023-01-17T07:23:27.612Z,96936.09
2023-01-17T07:26:29.863Z,96939.03
2023-01-17T07:29:32.067Z,96942.84
2023-01-17T07:32:34.266Z,96946.75
2023-01-17T07:35:36.878Z,96946.09
2023-01-17T07:38:39.178Z,96956.19
2023-01-17T07:41:42.856Z,96963.41
2023-01-17T07:44:45.484Z,96954.19
2023-01-17T07:47:50.041Z,96961.72
2023-01-17T07:50:56.484Z,96970.19
2023-01-17T07:53:58.706Z,96976.22
2023-01-17T07:57:01.769Z,96990.34
2023-01-17T08:00:04.899Z,97001.66
2023-01-17T08:03:07.114Z,97010.34
2023-01-17T08:06:24.339Z,97018.44
2023-01-17T08:09:26.535Z,97023.41
2023-01-17T08:12:29.595Z,97028.13
2023-01-17T08:15:32.300Z,97030.25
2023-01-17T08:18:35.314Z,97032.81
2023-01-17T08:21:37.765Z,97033.91
2023-01-17T08:24:39.932Z,97032.66
2023-01-17T08:27:42.104Z,97040.69
2023-01-17T08:30:44.451Z,97051.50
2023-01-17T08:33:46.678Z,97043.87
2023-01-17T08:36:48.902Z,97047.84
2023-01-17T08:39:51.246Z,97061.06
2023-01-17T08:42:54.892Z,97060.25
2023-01-17T08:45:57.182Z,97068.84
2023-01-17T08:49:00.117Z,97082.28
2023-01-17T08:52:02.361Z,97078.62
2023-01-17T08:55:05.965Z,97082.63
2023-01-17T08:58:08.435Z,97083.44
2023-01-17T09:01:10.881Z,97084.00
2023-01-17T09:04:13.659Z,97080.72
2023-01-17T09:07:17.292Z,97082.28
2023-01-17T09:10:19.545Z,97084.22
2023-01-17T09:13:21.710Z,97092.78
2023-01-17T09:16:23.955Z,97096.87
2023-01-17T09:19:26.258Z,97098.31
2023-01-17T09:22:28.444Z,97107.69
2023-01-17T09:25:30.681Z,97103.59
2023-01-17T09:28:39.631Z,97110.00
2023-01-17T09:31:42.258Z,97101.31
2023-01-17T09:34:44.476Z,97107.19
2023-01-17T09:37:50.816Z,97114.09
2023-01-17T09:40:52.941Z,97121.47
2023-01-17T09:43:59.785Z,97126.25
2023-01-17T09:47:13.803Z,97126.16
2023-01-17T09:50:32.038Z,97134.97
2023-01-17T09:53:37.597Z,97135.78
2023-01-17T09:56:47.039Z,97146.44
2023-01-17T10:00:02.947Z,97151.53
2023-01-17T10:03:26.597Z,97155.81
2023-01-17T10:06:53.520Z,97159.59
2023-01-17T10:10:26.058Z,97156.25
2023-01-17T10:13:34.288Z,97159.69
2023-01-17T10:17:16.216Z,97154.28
2023-01-17T10:20:30.754Z,97171.09
2023-01-17T10:23:50.790Z,97168.75
2023-01-17T10:26:56.267Z,97173.87
2023-01-17T10:30:00.133Z,97168.75
2023-01-17T10:33:04.321Z,97173.22
2023-01-17T10:36:12.977Z,97183.97
2023-01-17T10:39:25.627Z,97185.56
2023-01-17T10:42:41.053Z,97177.78
2023-01-17T10:45:51.957Z,97174.13
2023-01-17T10:48:55.204Z,97154.66
2023-01-17T10:52:00.338Z,97158.34
2023-01-17T10:55:27.511Z,97156.59
2023-01-17T10:58:29.777Z,97143.66
2023-01-17T11:01:32.068Z,97135.31
2023-01-17T11:04:36.741Z,97138.22
2023-01-17T11:07:40.181Z,97130.06
2023-01-17T11:10:50.396Z,97119.69
2023-01-17T11:13:53.765Z,97119.00
2023-01-17T11:17:03.726Z,97113.41
2023-01-17T11:20:20.112Z,97110.09
2023-01-17T11:23:33.290Z,97105.97
2023-01-17T11:26:36.678Z,97105.19
2023-01-17T11:29:40.700Z,97107.75
2023-01-17T11:32:54.874Z,97105.78
2023-01-17T11:35:57.155Z,97100.97
2023-01-17T11:39:04.433Z,97096.94
2023-01-17T11:42:09.449Z,97089.94
2023-01-17T11:45:27.335Z,97096.25
2023-01-17T11:48:38.027Z,97084.00
2023-01-17T11:51:41.996Z,97083.88
2023-01-17T11:54:46.795Z,97069.06
2023-01-17T11:57:50.637Z,97067.56
2023-01-17T12:01:22.153Z,97076.66
2023-01-17T12:04:37.707Z,97081.47
2023-01-17T12:07:58.304Z,97082.87
2023-01-17T12:11:05.959Z,97096.41
2023-01-17T12:14:28.161Z,97114.28
2023-01-17T12:17:37.334Z,97115.59
2023-01-17T12:20:59.646Z,97117.09
2023-01-17T12:24:50.801Z,97120.87
2023-01-17T12:28:00.664Z,97123.28
2023-01-17T12:31:15.419Z,97124.41
2023-01-17T12:34:19.654Z,97129.13
2023-01-17T12:37:37.197Z,97129.13
2023-01-17T12:40:58.062Z,97131.06
2023-01-17T12:44:01.130Z,97130.97
2023-01-17T12:47:04.948Z,97131.31
2023-01-17T12:50:19.103Z,97126.50
2023-01-17T12:53:38.104Z,97115.25
2023-01-17T12:56:48.479Z,97113.06
2023-01-17T12:59:56.629Z,97124.19
2023-01-17T13:03:16.108Z,97126.03
2023-01-17T13:06:27.345Z,97123.81
2023-01-17T13:09:59.183Z,97123.94
2023-01-17T13:13:13.491Z,97114.41
2023-01-17T13:16:23.399Z,97115.78
2023-01-17T13:19:40.797Z,97113.53
2023-01-17T13:22:43.215Z,97121.78
2023-01-17T13:25:50.538Z,97116.72
2023-01-17T13:29:30.112Z,97112.78
2023-01-17T13:32:38.125Z,97113.06
2023-01-17T13:35:58.209Z,97119.69
2023-01-17T13:39:12.675Z,97128.22
2023-01-17T13:42:46.984Z,97131.34
2023-01-17T13:45:57.466Z,97135.91
2023-01-17T13:49:29.120Z,97132.59
2023-01-17T13:52:34.096Z,97123.06
2023-01-17T13:55:47.203Z,97119.50
2023-01-17T13:58:50.360Z,97108.41
2023-01-17T14:01:53.278Z,97104.87
2023-01-17T14:05:15.923Z,97107.75
2023-01-17T14:08:19.157Z,97099.13
2023-01-17T14:11:21.730Z,97089.28
2023-01-17T14:14:42.708Z,97080.34
2023-01-17T14:17:58.037Z,97073.13
2023-01-17T14:21:25.362Z,97068.53
2023-01-17T14:24:30.592Z,97052.59
2023-01-17T14:27:38.116Z,97038.47
2023-01-17T14:30:41.412Z,97030.38
2023-01-17T14:33:43.852Z,97025.28
2023-01-17T14:36:46.061Z,97027.84
2023-01-17T14:39:49.991Z,97018.31
2023-01-17T14:43:04.312Z,97007.66
2023-01-17T14:46:08.560Z,97003.88
2023-01-17T14:49:24.106Z,96988.06
2023-01-17T14:52:26.323Z,96974.91
2023-01-17T14:55:28.489Z,96970.19
2023-01-17T14:58:33.165Z,96984.84
2023-01-17T15:01:36.303Z,96992.41
2023-01-17T15:04:40.342Z,96977.41
2023-01-17T15:07:48.409Z,96972.38
2023-01-17T15:10:55.153Z,96972.94
2023-01-17T15:13:59.358Z,96972.59
2023-01-17T15:17:12.770Z,96963.09
2023-01-17T15:20:16.969Z,96958.63
2023-01-17T15:23:21.312Z,96949.69
2023-01-17T15:26:25.536Z,96960.56
2023-01-17T15:29:31.254Z,96968.25
2023-01-17T15:32:33.641Z,96962.84
2023-01-17T15:35:35.803Z,96961.38
2023-01-17T15:38:40.723Z,96952.34
2023-01-17T15:41:42.912Z,96947.97
2023-01-17T15:44:48.871Z,96950.63
2023-01-17T15:47:51.636Z,96939.28
2023-01-17T15:50:59.682Z,96930.47
2023-01-17T15:54:25.533Z,96922.56
2023-01-17T15:57:37.294Z,96918.22
2023-01-17T16:00:41.878Z,96915.13
2023-01-17T16:03:55.206Z,96923.03
2023-01-17T16:07:19.807Z,96919.59
2023-01-17T16:10:24.488Z,96918.34
2023-01-17T16:13:26.693Z,96913.97
2023-01-17T16:16:28.975Z,96908.81
2023-01-17T16:19:31.976Z,96900.34
2023-01-17T16:22:34.149Z,96912.84
2023-01-17T16:25:36.384Z,96915.81
2023-01-17T16:28:38.831Z,96913.06
2023-01-17T16:31:41.007Z,96921.66
2023-01-17T16:34:43.254Z,96916.50
2023-01-17T16:37:49.368Z,96910.44
2023-01-17T16:40:51.923Z,96909.62
2023-01-17T16:44:00.249Z,96896.56
2023-01-17T16:47:02.499Z,96890.28
2023-01-17T16:50:05.013Z,96893.59
2023-01-17T16:53:07.218Z,96891.19
2023-01-17T16:56:14.505Z,96895.78
2023-01-17T16:59:16.767Z,96892.22
2023-01-17T17:02:19.124Z,96887.75
2023-01-17T17:05:21.323Z,96894.16
2023-01-17T17:08:24.292Z,96889.94
2023-01-17T17:11:26.441Z,96883.03
2023-01-17T17:14:29.327Z,96880.44
2023-01-17T17:17:35.916Z,96878.34
2023-01-17T17:20:38.064Z,96873.09
2023-01-17T17:23:40.294Z,96872.41
2023-01-17T17:26:43.368Z,96862.69
2023-01-17T17:29:45.744Z,96851.53
2023-01-17T17:32:48.095Z,96857.84
2023-01-17T17:35:50.273Z,96852.00
2023-01-17T17:38:55.451Z,96819.59
2023-01-17T17:41:57.607Z,96829.78
2023-01-17T17:44:59.742Z,96820.06
2023-01-17T17:48:01.907Z,96818.31
2023-01-17T17:51:06.294Z,96811.12
2023-01-17T17:54:11.411Z,96792.50
2023-01-17T17:57:13.578Z,96790.78
2023-01-17T18:00:16.392Z,96771.22
2023-01-17T18:03:19.020Z,96760.72
2023-01-17T18:06:21.771Z,96756.78
2023-01-17T18:09:24.141Z,96746.84
2023-01-17T18:12:26.885Z,96743.88
2023-01-17T18:15:29.221Z,96734.28
2023-01-17T18:18:33.074Z,96734.28
2023-01-17T18:21:37.513Z,96718.63
2023-01-17T18:24:39.976Z,96706.81
2023-01-17T18:27:45.272Z,96690.97
2023-01-17T18:30:47.547Z,96687.66
2023-01-17T18:33:50.137Z,96682.94
2023-01-17T18:36:52.724Z,96676.56
2023-01-17T18:39:55.159Z,96677.47
2023-01-17T18:42:57.556Z,96675.09
2023-01-17T18:46:01.963Z,96653.25
2023-01-17T18:49:05.159Z,96661.34
2023-01-17T18:52:09.337Z,96650.16
2023-01-17T18:55:11.665Z,96658.16
2023-01-17T18:58:15.162Z,96646.28
2023-01-17T19:01:44.625Z,96638.28
2023-01-17T19:04:47.048Z,96630.94
2023-01-17T19:07:49.805Z,96630.69
2023-01-17T19:10:52.198Z,96615.63
2023-01-17T19:13:55.326Z,96603.78
2023-01-17T19:16:57.652Z,96612.03
2023-01-17T19:20:00.355Z,96587.09
2023-01-17T19:23:03.443Z,96574.69
2023-01-17T19:26:08.264Z,96566.31
2023-01-17T19:29:11.203Z,96562.56
2023-01-17T19:32:13.621Z,96546.91
2023-01-17T19:35:17.567Z,96533.78
2023-01-17T19:38:19.728Z,96543.97
2023-01-17T19:41:26.159Z,96517.91
2023-01-17T19:44:29.391Z,96530.25
2023-01-17T19:47:31.718Z,96534.94
2023-01-17T19:50:34.585Z,96542.34
2023-01-17T19:53:37.876Z,96521.81
2023-01-17T19:56:40.437Z,96501.47
2023-01-17T19:59:42.835Z,96494.53
2023-01-17T20:02:46.441Z,96487.53
2023-01-17T20:05:56.109Z,96486.19
2023-01-17T20:08:58.884Z,96459.81
2023-01-17T20:12:01.272Z,96453.66
2023-01-17T20:15:06.208Z,96444.19
2023-01-17T20:18:08.951Z,96426.41
2023-01-17T20:21:14.655Z,96414.97
2023-01-17T20:24:17.217Z,96424.91
2023-01-17T20:27:21.453Z,96420.31
2023-01-17T20:30:29.986Z,96430.03
2023-01-17T20:33:32.246Z,96436.38
2023-01-17T20:36:35.382Z,96426.59
2023-01-17T20:39:39.340Z,96434.28
2023-01-17T20:42:41.525Z,96417.81
2023-01-17T20:45:43.856Z,96416.09
2023-01-17T20:48:47.805Z,96406.88
2023-01-17T20:51:50.095Z,96401.63
2023-01-17T20:54:52.844Z,96411.44
2023-01-17T20:57:55.351Z,96429.47
2023-01-17T21:00:58.251Z,96434.28
2023-01-17T21:04:00.643Z,96424.81
2023-01-17T21:07:02.805Z,96406.31
2023-01-17T21:10:05.313Z,96399.12
2023-01-17T21:13:07.515Z,96393.66
2023-01-17T21:16:12.747Z,96397.59
2023-01-17T21:19:17.932Z,96397.03
2023-01-17T21:22:20.266Z,96385.19
2023-01-17T21:25:22.456Z,96389.84
2023-01-17T21:28:26.930Z,96373.50
2023-01-17T21:31:30.567Z,96359.34
2023-01-17T21:34:34.609Z,96348.97
2023-01-17T21:37:37.334Z,96338.44
2023-01-17T21:40:40.108Z,96320.56
2023-01-17T21:43:42.251Z,96314.47
2023-01-17T21:46:44.628Z,96301.91
2023-01-17T21:49:46.887Z,96286.56
2023-01-17T21:52:49.056Z,96280.94
2023-01-17T21:56:09.777Z,96277.62
2023-01-17T21:59:11.960Z,96284.59
2023-01-17T22:02:14.228Z,96282.06
2023-01-17T22:05:18.018Z,96281.59
2023-01-17T22:08:20.635Z,96297.00
2023-01-17T22:11:25.374Z,96287.88
2023-01-17T22:14:27.519Z,96274.34
2023-01-17T22:17:30.645Z,96275.06
2023-01-17T22:20:33.311Z,96271.25
2023-01-17T22:23:35.684Z,96267.16
2023-01-17T22:26:39.917Z,96253.13
2023-01-17T22:29:43.233Z,96269.03
2023-01-17T22:32:45.429Z,96267.50
2023-01-17T22:35:47.620Z,96253.72
2023-01-17T22:38:50.024Z,96253.59
2023-01-17T22:41:52.199Z,96248.72
2023-01-17T22:44:54.341Z,96255.66
2023-01-17T22:47:56.513Z,96265.91
2023-01-17T22:51:02.097Z,96260.78
2023-01-17T22:54:04.525Z,96266.94
2023-01-17T22:57:06.695Z,96272.44
2023-01-17T23:00:14.512Z,96277.75
2023-01-17T23:03:16.947Z,96273.87
2023-01-17T23:06:22.860Z,96281.09
2023-01-17T23:09:25.031Z,96286.78
2023-01-17T23:12:27.241Z,96298.19
2023-01-17T23:15:48.319Z,96270.62
2023-01-17T23:19:09.249Z,96260.78
2023-01-17T23:22:16.891Z,96282.22
2023-01-17T23:25:19.179Z,96286.78
2023-01-17T23:28:21.436Z,96280.75
2023-01-17T23:31:24.452Z,96299.19
2023-01-17T23:34:26.680Z,96296.81
2023-01-17T23:37:50.152Z,96296.09
2023-01-17T23:41:12.179Z,96307.94
2023-01-17T23:44:15.216Z,96326.31
2023-01-17T23:47:17.380Z,96315.50
2023-01-17T23:50:19.717Z,96313.66
2023-01-17T23:53:22.515Z,96327.84
2023-01-17T23:56:24.889Z,96305.34
2023-01-17T23:59:27.201Z,96312.66
